sensor_id;sensor_type;location;lat;lon;timestamp;pressure;altitude;pressure_sealevel;temperature;humidity
77823;BME280;67013;49.730;17.292;2023-02-15T00:01:36;99987.45;;;2.22;69.60
77823;BME280;67013;49.730;17.292;2023-02-15T00:04:07;99986.00;;;2.16;69.51
77823;BME280;67013;49.730;17.292;2023-02-15T00:06:37;99981.08;;;2.11;69.81
77823;BME280;67013;49.730;17.292;2023-02-15T00:09:06;99976.51;;;2.06;69.86
77823;BME280;67013;49.730;17.292;2023-02-15T00:11:36;99977.55;;;2.05;70.04
77823;BME280;67013;49.730;17.292;2023-02-15T00:14:11;99972.93;;;2.05;70.05
77823;BME280;67013;49.730;17.292;2023-02-15T00:16:39;99969.31;;;2.05;70.07
77823;BME280;67013;49.730;17.292;2023-02-15T00:19:10;99966.41;;;2.05;70.28
77823;BME280;67013;49.730;17.292;2023-02-15T00:21:41;99966.08;;;2.04;70.38
77823;BME280;67013;49.730;17.292;2023-02-15T00:24:12;99965.23;;;2.03;70.44
77823;BME280;67013;49.730;17.292;2023-02-15T00:26:43;99963.54;;;2.01;70.38
77823;BME280;67013;49.730;17.292;2023-02-15T00:29:14;99965.11;;;1.98;70.55
77823;BME280;67013;49.730;17.292;2023-02-15T00:31:44;99963.96;;;1.93;70.62
77823;BME280;67013;49.730;17.292;2023-02-15T00:34:15;99956.33;;;1.89;70.74
77823;BME280;67013;49.730;17.292;2023-02-15T00:36:46;99955.48;;;1.87;70.88
77823;BME280;67013;49.730;17.292;2023-02-15T00:39:16;99950.70;;;1.84;71.01
77823;BME280;67013;49.730;17.292;2023-02-15T00:41:46;99947.34;;;1.79;71.05
77823;BME280;67013;49.730;17.292;2023-02-15T00:44:16;99945.85;;;1.76;71.33
77823;BME280;67013;49.730;17.292;2023-02-15T00:46:46;99944.50;;;1.74;70.91
77823;BME280;67013;49.730;17.292;2023-02-15T00:49:15;99940.56;;;1.73;70.96
77823;BME280;67013;49.730;17.292;2023-02-15T00:51:45;99942.47;;;1.71;71.06
77823;BME280;67013;49.730;17.292;2023-02-15T00:54:14;99945.04;;;1.72;71.14
77823;BME280;67013;49.730;17.292;2023-02-15T00:56:43;99946.74;;;1.73;71.32
77823;BME280;67013;49.730;17.292;2023-02-15T00:59:13;99949.31;;;1.72;71.45
77823;BME280;67013;49.730;17.292;2023-02-15T01:01:42;99947.45;;;1.71;71.15
77823;BME280;67013;49.730;17.292;2023-02-15T01:04:12;99943.52;;;1.68;71.50
77823;BME280;67013;49.730;17.292;2023-02-15T01:06:41;99942.68;;;1.67;71.56
77823;BME280;67013;49.730;17.292;2023-02-15T01:09:11;99941.84;;;1.65;71.48
77823;BME280;67013;49.730;17.292;2023-02-15T01:11:41;99941.04;;;1.62;71.46
77823;BME280;67013;49.730;17.292;2023-02-15T01:14:11;99941.09;;;1.57;71.55
77823;BME280;67013;49.730;17.292;2023-02-15T01:16:41;99938.91;;;1.52;71.78
77823;BME280;67013;49.730;17.292;2023-02-15T01:19:10;99940.73;;;1.46;71.85
77823;BME280;67013;49.730;17.292;2023-02-15T01:21:40;99937.17;;;1.39;72.15
77823;BME280;67013;49.730;17.292;2023-02-15T01:24:13;99934.98;;;1.35;72.17
77823;BME280;67013;49.730;17.292;2023-02-15T01:26:42;99934.19;;;1.31;72.40
77823;BME280;67013;49.730;17.292;2023-02-15T01:29:12;99934.55;;;1.30;72.22
77823;BME280;67013;49.730;17.292;2023-02-15T01:31:41;99930.95;;;1.29;72.41
77823;BME280;67013;49.730;17.292;2023-02-15T01:34:11;99930.60;;;1.30;72.39
77823;BME280;67013;49.730;17.292;2023-02-15T01:36:40;99927.17;;;1.30;72.53
77823;BME280;67013;49.730;17.292;2023-02-15T01:39:10;99922.55;;;1.30;72.63
77823;BME280;67013;49.730;17.292;2023-02-15T01:41:39;99920.33;;;1.29;72.47
77823;BME280;67013;49.730;17.292;2023-02-15T01:47:10;99915.23;;;1.25;72.83
77823;BME280;67013;49.730;17.292;2023-02-15T01:49:43;99911.65;;;1.22;72.90
77823;BME280;67013;49.730;17.292;2023-02-15T01:52:16;99909.12;;;1.19;72.73
77823;BME280;67013;49.730;17.292;2023-02-15T01:54:47;99907.45;;;1.16;73.08
77823;BME280;67013;49.730;17.292;2023-02-15T01:57:19;99901.66;;;1.12;73.17
77823;BME280;67013;49.730;17.292;2023-02-15T01:59:54;99901.35;;;1.08;73.09
77823;BME280;67013;49.730;17.292;2023-02-15T02:02:26;99898.98;;;1.04;73.30
77823;BME280;67013;49.730;17.292;2023-02-15T02:04:59;99898.86;;;1.02;73.39
77823;BME280;67013;49.730;17.292;2023-02-15T02:07:34;99897.33;;;1.01;73.25
77823;BME280;67013;49.730;17.292;2023-02-15T02:10:08;99894.58;;;1.02;73.54
77823;BME280;67013;49.730;17.292;2023-02-15T02:12:38;99893.03;;;1.03;73.65
77823;BME280;67013;49.730;17.292;2023-02-15T02:15:09;99886.64;;;1.05;73.80
77823;BME280;67013;49.730;17.292;2023-02-15T02:17:47;99884.58;;;1.05;73.90
77823;BME280;67013;49.730;17.292;2023-02-15T02:20:30;99881.33;;;1.06;73.80
77823;BME280;67013;49.730;17.292;2023-02-15T02:23:12;99875.16;;;1.05;73.53
77823;BME280;67013;49.730;17.292;2023-02-15T02:26:16;99870.59;;;1.03;73.85
77823;BME280;67013;49.730;17.292;2023-02-15T02:29:17;99871.83;;;0.99;73.75
77823;BME280;67013;49.730;17.292;2023-02-15T02:32:15;99865.35;;;0.95;74.02
77823;BME280;67013;49.730;17.292;2023-02-15T02:34:57;99862.29;;;0.92;74.15
77823;BME280;67013;49.730;17.292;2023-02-15T02:37:33;99863.87;;;0.89;73.95
77823;BME280;67013;49.730;17.292;2023-02-15T02:40:11;99865.98;;;0.84;74.14
77823;BME280;67013;49.730;17.292;2023-02-15T02:42:44;99863.59;;;0.83;73.97
77823;BME280;67013;49.730;17.292;2023-02-15T02:45:20;99866.50;;;0.83;74.34
77823;BME280;67013;49.730;17.292;2023-02-15T02:47:55;99863.60;;;0.83;74.47
77823;BME280;67013;49.730;17.292;2023-02-15T02:50:28;99860.50;;;0.85;74.39
77823;BME280;67013;49.730;17.292;2023-02-15T02:53:00;99855.34;;;0.88;74.31
77823;BME280;67013;49.730;17.292;2023-02-15T02:55:33;99852.41;;;0.89;74.35
77823;BME280;67013;49.730;17.292;2023-02-15T02:58:08;99849.46;;;0.90;74.24
77823;BME280;67013;49.730;17.292;2023-02-15T03:00:43;99851.02;;;0.89;74.35
77823;BME280;67013;49.730;17.292;2023-02-15T03:03:15;99849.36;;;0.86;74.47
77823;BME280;67013;49.730;17.292;2023-02-15T03:05:53;99845.27;;;0.83;74.47
77823;BME280;67013;49.730;17.292;2023-02-15T03:08:28;99843.09;;;0.78;74.48
77823;BME280;67013;49.730;17.292;2023-02-15T03:11:02;99840.91;;;0.73;74.53
77823;BME280;67013;49.730;17.292;2023-02-15T03:13:33;99843.36;;;0.69;74.55
77823;BME280;67013;49.730;17.292;2023-02-15T03:16:06;99841.50;;;0.64;74.58
77823;BME280;67013;49.730;17.292;2023-02-15T03:19:00;99843.58;;;0.62;74.76
77823;BME280;67013;49.730;17.292;2023-02-15T03:21:35;99843.10;;;0.59;74.62
77823;BME280;67013;49.730;17.292;2023-02-15T03:24:09;99842.10;;;0.58;74.53
77823;BME280;67013;49.730;17.292;2023-02-15T03:26:41;99842.95;;;0.59;74.62
77823;BME280;67013;49.730;17.292;2023-02-15T03:29:13;99844.28;;;0.60;74.59
77823;BME280;67013;49.730;17.292;2023-02-15T03:31:47;99841.39;;;0.60;74.70
77823;BME280;67013;49.730;17.292;2023-02-15T03:34:19;99844.98;;;0.59;74.81
77823;BME280;67013;49.730;17.292;2023-02-15T03:36:52;99846.89;;;0.58;74.82
77823;BME280;67013;49.730;17.292;2023-02-15T03:39:29;99848.10;;;0.56;74.88
77823;BME280;67013;49.730;17.292;2023-02-15T03:42:06;99846.92;;;0.53;74.74
77823;BME280;67013;49.730;17.292;2023-02-15T03:44:45;99846.79;;;0.49;74.97
77823;BME280;67013;49.730;17.292;2023-02-15T03:47:19;99848.01;;;0.45;75.05
77823;BME280;67013;49.730;17.292;2023-02-15T03:49:53;99850.46;;;0.40;74.95
77823;BME280;67013;49.730;17.292;2023-02-15T03:52:24;99851.86;;;0.36;75.28
77823;BME280;67013;49.730;17.292;2023-02-15T03:54:55;99849.14;;;0.33;75.06
77823;BME280;67013;49.730;17.292;2023-02-15T03:57:26;99850.00;;;0.33;75.34
77823;BME280;67013;49.730;17.292;2023-02-15T04:00:16;99849.81;;;0.35;75.42
77823;BME280;67013;49.730;17.292;2023-02-15T04:03:26;99846.73;;;0.37;75.41
77823;BME280;67013;49.730;17.292;2023-02-15T04:06:02;99847.51;;;0.45;75.29
77823;BME280;67013;49.730;17.292;2023-02-15T04:08:32;99841.12;;;0.51;75.50
77823;BME280;67013;49.730;17.292;2023-02-15T04:11:15;99842.95;;;0.57;75.14
77823;BME280;67013;49.730;17.292;2023-02-15T04:13:44;99842.71;;;0.63;75.14
77823;BME280;67013;49.730;17.292;2023-02-15T04:16:14;99843.88;;;0.68;75.11
77823;BME280;67013;49.730;17.292;2023-02-15T04:18:44;99841.08;;;0.74;75.25
77823;BME280;67013;49.730;17.292;2023-02-15T04:21:32;99839.66;;;0.78;75.10
77823;BME280;67013;49.730;17.292;2023-02-15T04:24:19;99836.53;;;0.83;75.37
77823;BME280;67013;49.730;17.292;2023-02-15T04:27:06;99830.49;;;0.88;75.04
77823;BME280;67013;49.730;17.292;2023-02-15T04:29:36;99832.67;;;0.91;74.85
77823;BME280;67013;49.730;17.292;2023-02-15T04:32:05;99837.25;;;0.95;75.11
77823;BME280;67013;49.730;17.292;2023-02-15T04:34:35;99834.47;;;1.00;75.00
77823;BME280;67013;49.730;17.292;2023-02-15T04:37:04;99831.64;;;1.07;75.10
77823;BME280;67013;49.730;17.292;2023-02-15T04:39:34;99833.09;;;1.16;75.00
77823;BME280;67013;49.730;17.292;2023-02-15T04:42:03;99835.04;;;1.24;75.02
77823;BME280;67013;49.730;17.292;2023-02-15T04:44:33;99836.83;;;1.33;75.08
77823;BME280;67013;49.730;17.292;2023-02-15T04:47:02;99835.52;;;1.41;74.76
77823;BME280;67013;49.730;17.292;2023-02-15T04:49:32;99839.36;;;1.49;74.64
77823;BME280;67013;49.730;17.292;2023-02-15T04:52:01;99843.38;;;1.56;74.44
77823;BME280;67013;49.730;17.292;2023-02-15T04:54:30;99842.11;;;1.62;74.27
77823;BME280;67013;49.730;17.292;2023-02-15T04:57:00;99844.27;;;1.66;74.33
77823;BME280;67013;49.730;17.292;2023-02-15T04:59:29;99846.11;;;1.70;74.11
77823;BME280;67013;49.730;17.292;2023-02-15T05:01:59;99847.62;;;1.73;74.03
77823;BME280;67013;49.730;17.292;2023-02-15T05:04:28;99846.04;;;1.76;73.86
77823;BME280;67013;49.730;17.292;2023-02-15T05:06:58;99844.59;;;1.79;73.93
77823;BME280;67013;49.730;17.292;2023-02-15T05:09:27;99844.55;;;1.83;73.75
77823;BME280;67013;49.730;17.292;2023-02-15T05:11:57;99845.73;;;1.85;73.80
77823;BME280;67013;49.730;17.292;2023-02-15T05:14:26;99843.29;;;1.87;73.66
77823;BME280;67013;49.730;17.292;2023-02-15T05:16:56;99843.23;;;1.92;73.64
77823;BME280;67013;49.730;17.292;2023-02-15T05:19:29;99841.40;;;1.99;73.46
77823;BME280;67013;49.730;17.292;2023-02-15T05:21:58;99834.46;;;2.05;73.26
77823;BME280;67013;49.730;17.292;2023-02-15T05:24:28;99839.30;;;2.13;73.03
77823;BME280;67013;49.730;17.292;2023-02-15T05:27:15;99840.90;;;2.21;72.91
77823;BME280;67013;49.730;17.292;2023-02-15T05:30:02;99843.89;;;2.27;72.76
77823;BME280;67013;49.730;17.292;2023-02-15T05:32:32;99844.86;;;2.31;72.67
77823;BME280;67013;49.730;17.292;2023-02-15T05:35:02;99846.53;;;2.34;72.60
77823;BME280;67013;49.730;17.292;2023-02-15T05:37:31;99847.70;;;2.36;72.50
77823;BME280;67013;49.730;17.292;2023-02-15T05:40:00;99849.06;;;2.37;72.58
77823;BME280;67013;49.730;17.292;2023-02-15T05:42:30;99846.98;;;2.38;72.47
77823;BME280;67013;49.730;17.292;2023-02-15T05:44:59;99847.66;;;2.38;72.30
77823;BME280;67013;49.730;17.292;2023-02-15T05:47:29;99849.59;;;2.37;72.21
77823;BME280;67013;49.730;17.292;2023-02-15T05:49:58;99854.75;;;2.35;72.21
77823;BME280;67013;49.730;17.292;2023-02-15T05:52:28;99853.77;;;2.33;72.18
77823;BME280;67013;49.730;17.292;2023-02-15T05:54:57;99853.73;;;2.34;72.30
77823;BME280;67013;49.730;17.292;2023-02-15T05:57:28;99851.79;;;2.37;72.22
77823;BME280;67013;49.730;17.292;2023-02-15T05:59:57;99850.70;;;2.40;72.09
77823;BME280;67013;49.730;17.292;2023-02-15T06:02:27;99851.30;;;2.46;72.18
77823;BME280;67013;49.730;17.292;2023-02-15T06:04:56;99851.01;;;2.53;72.04
77823;BME280;67013;49.730;17.292;2023-02-15T06:07:26;99851.46;;;2.57;71.98
77823;BME280;67013;49.730;17.292;2023-02-15T06:09:55;99853.29;;;2.61;71.67
77823;BME280;67013;49.730;17.292;2023-02-15T06:12:24;99853.08;;;2.64;71.72
77823;BME280;67013;49.730;17.292;2023-02-15T06:14:54;99851.31;;;2.66;71.52
77823;BME280;67013;49.730;17.292;2023-02-15T06:17:24;99851.78;;;2.68;71.30
77823;BME280;67013;49.730;17.292;2023-02-15T06:19:53;99849.36;;;2.68;71.26
77823;BME280;67013;49.730;17.292;2023-02-15T06:22:23;99848.16;;;2.68;71.34
77823;BME280;67013;49.730;17.292;2023-02-15T06:24:52;99847.33;;;2.67;71.33
77823;BME280;67013;49.730;17.292;2023-02-15T06:27:22;99852.81;;;2.67;71.29
77823;BME280;67013;49.730;17.292;2023-02-15T06:29:51;99852.98;;;2.67;71.22
77823;BME280;67013;49.730;17.292;2023-02-15T06:32:21;99853.34;;;2.67;71.18
77823;BME280;67013;49.730;17.292;2023-02-15T06:34:50;99858.11;;;2.69;71.31
77823;BME280;67013;49.730;17.292;2023-02-15T06:37:19;99857.52;;;2.74;71.15
77823;BME280;67013;49.730;17.292;2023-02-15T06:39:49;99857.98;;;2.78;71.14
77823;BME280;67013;49.730;17.292;2023-02-15T06:42:19;99861.11;;;2.84;70.92
77823;BME280;67013;49.730;17.292;2023-02-15T06:44:48;99862.04;;;2.90;70.75
77823;BME280;67013;49.730;17.292;2023-02-15T06:47:17;99866.80;;;2.94;70.52
77823;BME280;67013;49.730;17.292;2023-02-15T06:49:47;99865.14;;;2.99;70.35
77823;BME280;67013;49.730;17.292;2023-02-15T06:52:16;99866.47;;;3.02;70.29
77823;BME280;67013;49.730;17.292;2023-02-15T06:54:46;99861.95;;;3.04;70.28
77823;BME280;67013;49.730;17.292;2023-02-15T06:57:15;99863.96;;;3.07;70.13
77823;BME280;67013;49.730;17.292;2023-02-15T06:59:45;99866.67;;;3.10;70.16
77823;BME280;67013;49.730;17.292;2023-02-15T07:02:15;99866.34;;;3.09;70.20
77823;BME280;67013;49.730;17.292;2023-02-15T07:04:44;99866.66;;;3.10;70.11
77823;BME280;67013;49.730;17.292;2023-02-15T07:07:14;99868.90;;;3.10;70.30
77823;BME280;67013;49.730;17.292;2023-02-15T07:09:43;99873.34;;;3.11;70.20
77823;BME280;67013;49.730;17.292;2023-02-15T07:12:13;99869.08;;;3.09;69.95
77823;BME280;67013;49.730;17.292;2023-02-15T07:15:00;99864.77;;;3.10;69.88
77823;BME280;67013;49.730;17.292;2023-02-15T07:17:29;99859.52;;;3.13;69.87
77823;BME280;67013;49.730;17.292;2023-02-15T07:19:59;99857.73;;;3.17;69.55
77823;BME280;67013;49.730;17.292;2023-02-15T07:22:29;99860.77;;;3.22;69.33
77823;BME280;67013;49.730;17.292;2023-02-15T07:24:59;99858.46;;;3.25;69.07
77823;BME280;67013;49.730;17.292;2023-02-15T07:27:28;99857.52;;;3.28;69.00
77823;BME280;67013;49.730;17.292;2023-02-15T07:29:58;99853.52;;;3.31;69.24
77823;BME280;67013;49.730;17.292;2023-02-15T07:32:30;99850.89;;;3.34;69.13
77823;BME280;67013;49.730;17.292;2023-02-15T07:35:00;99850.34;;;3.36;68.92
77823;BME280;67013;49.730;17.292;2023-02-15T07:37:29;99849.43;;;3.38;68.88
77823;BME280;67013;49.730;17.292;2023-02-15T07:39:59;99848.35;;;3.40;68.71
77823;BME280;67013;49.730;17.292;2023-02-15T07:42:28;99851.90;;;3.42;68.62
77823;BME280;67013;49.730;17.292;2023-02-15T07:44:59;99853.23;;;3.45;68.56
77823;BME280;67013;49.730;17.292;2023-02-15T07:47:29;99859.89;;;3.48;68.68
77823;BME280;67013;49.730;17.292;2023-02-15T07:49:58;99860.21;;;3.48;68.59
77823;BME280;67013;49.730;17.292;2023-02-15T07:52:28;99850.79;;;3.47;68.68
77823;BME280;67013;49.730;17.292;2023-02-15T07:54:57;99853.92;;;3.54;68.86
77823;BME280;67013;49.730;17.292;2023-02-15T07:57:27;99850.20;;;3.59;68.60
77823;BME280;67013;49.730;17.292;2023-02-15T07:59:57;99850.57;;;3.66;68.47
77823;BME280;67013;49.730;17.292;2023-02-15T08:02:26;99852.97;;;3.74;68.33
77823;BME280;67013;49.730;17.292;2023-02-15T08:04:56;99853.89;;;3.79;68.15
77823;BME280;67013;49.730;17.292;2023-02-15T08:07:26;99854.45;;;3.85;68.19
77823;BME280;67013;49.730;17.292;2023-02-15T08:09:55;99851.39;;;3.91;68.12
77823;BME280;67013;49.730;17.292;2023-02-15T08:12:27;99850.23;;;3.97;68.11
77823;BME280;67013;49.730;17.292;2023-02-15T08:14:56;99847.88;;;4.01;67.93
77823;BME280;67013;49.730;17.292;2023-02-15T08:17:26;99846.77;;;4.05;67.75
77823;BME280;67013;49.730;17.292;2023-02-15T08:19:56;99845.68;;;4.07;67.53
77823;BME280;67013;49.730;17.292;2023-02-15T08:22:25;99844.95;;;4.09;67.37
77823;BME280;67013;49.730;17.292;2023-02-15T08:24:55;99846.63;;;4.11;67.65
77823;BME280;67013;49.730;17.292;2023-02-15T08:27:24;99845.64;;;4.16;67.48
77823;BME280;67013;49.730;17.292;2023-02-15T08:29:54;99846.05;;;4.20;67.09
77823;BME280;67013;49.730;17.292;2023-02-15T08:32:24;99845.15;;;4.23;67.12
77823;BME280;67013;49.730;17.292;2023-02-15T08:34:53;99849.10;;;4.23;66.64
77823;BME280;67013;49.730;17.292;2023-02-15T08:37:23;99848.64;;;4.20;66.59
77823;BME280;67013;49.730;17.292;2023-02-15T08:39:53;99843.48;;;4.20;66.60
77823;BME280;67013;49.730;17.292;2023-02-15T08:42:23;99838.73;;;4.24;66.55
77823;BME280;67013;49.730;17.292;2023-02-15T08:44:52;99839.80;;;4.30;66.62
77823;BME280;67013;49.730;17.292;2023-02-15T08:47:22;99836.20;;;4.37;66.03
77823;BME280;67013;49.730;17.292;2023-02-15T08:49:51;99840.66;;;4.44;65.97
77823;BME280;67013;49.730;17.292;2023-02-15T08:52:21;99842.16;;;4.54;66.10
77823;BME280;67013;49.730;17.292;2023-02-15T08:54:50;99841.23;;;4.62;65.90
77823;BME280;67013;49.730;17.292;2023-02-15T08:57:20;99842.93;;;4.71;65.77
77823;BME280;67013;49.730;17.292;2023-02-15T08:59:49;99839.48;;;4.76;65.17
77823;BME280;67013;49.730;17.292;2023-02-15T09:02:19;99834.32;;;4.83;65.70
77823;BME280;67013;49.730;17.292;2023-02-15T09:04:48;99831.96;;;4.88;65.61
77823;BME280;67013;49.730;17.292;2023-02-15T09:07:19;99832.33;;;4.92;64.97
77823;BME280;67013;49.730;17.292;2023-02-15T09:09:49;99831.17;;;4.98;64.89
77823;BME280;67013;49.730;17.292;2023-02-15T09:12:18;99837.62;;;5.02;64.71
77823;BME280;67013;49.730;17.292;2023-02-15T09:14:48;99835.57;;;5.07;64.59
77823;BME280;67013;49.730;17.292;2023-02-15T09:17:17;99831.02;;;5.10;64.13
77823;BME280;67013;49.730;17.292;2023-02-15T09:19:46;99829.55;;;5.13;64.18
77823;BME280;67013;49.730;17.292;2023-02-15T09:22:16;99827.23;;;5.16;64.24
77823;BME280;67013;49.730;17.292;2023-02-15T09:24:45;99823.02;;;5.19;63.98
77823;BME280;67013;49.730;17.292;2023-02-15T09:27:15;99824.27;;;5.23;64.04
77823;BME280;67013;49.730;17.292;2023-02-15T09:29:44;99823.02;;;5.24;63.52
77823;BME280;67013;49.730;17.292;2023-02-15T09:32:16;99824.08;;;5.23;63.57
77823;BME280;67013;49.730;17.292;2023-02-15T09:34:45;99826.50;;;5.23;63.56
77823;BME280;67013;49.730;17.292;2023-02-15T09:37:15;99826.27;;;5.25;63.50
77823;BME280;67013;49.730;17.292;2023-02-15T09:39:44;99824.82;;;5.28;63.54
77823;BME280;67013;49.730;17.292;2023-02-15T09:42:31;99829.40;;;5.31;63.66
77823;BME280;67013;49.730;17.292;2023-02-15T09:45:24;99831.38;;;5.34;63.13
77823;BME280;67013;49.730;17.292;2023-02-15T09:48:24;99833.17;;;5.37;63.11
77823;BME280;67013;49.730;17.292;2023-02-15T09:51:09;99832.70;;;5.41;63.47
77823;BME280;67013;49.730;17.292;2023-02-15T09:53:56;99831.64;;;5.48;63.42
77823;BME280;67013;49.730;17.292;2023-02-15T09:56:37;99831.27;;;5.55;63.43
77823;BME280;67013;49.730;17.292;2023-02-15T09:59:14;99831.20;;;5.63;63.18
77823;BME280;67013;49.730;17.292;2023-02-15T10:01:54;99828.89;;;5.72;62.57
77823;BME280;67013;49.730;17.292;2023-02-15T10:04:47;99826.56;;;5.80;62.40
77823;BME280;67013;49.730;17.292;2023-02-15T10:07:33;99820.97;;;5.88;62.16
77823;BME280;67013;49.730;17.292;2023-02-15T10:10:16;99823.82;;;5.96;62.40
77823;BME280;67013;49.730;17.292;2023-02-15T10:13:02;99823.94;;;6.05;61.86
77823;BME280;67013;49.730;17.292;2023-02-15T10:15:54;99821.67;;;6.05;61.42
77823;BME280;67013;49.730;17.292;2023-02-15T10:18:41;99819.17;;;6.02;61.39
77823;BME280;67013;49.730;17.292;2023-02-15T10:21:23;99822.55;;;6.05;61.53
77823;BME280;67013;49.730;17.292;2023-02-15T10:24:23;99822.81;;;6.07;61.28
77823;BME280;67013;49.730;17.292;2023-02-15T10:26:58;99821.14;;;6.11;61.29
77823;BME280;67013;49.730;17.292;2023-02-15T10:29:36;99819.14;;;6.13;61.24
77823;BME280;67013;49.730;17.292;2023-02-15T10:32:16;99816.88;;;6.14;61.15
77823;BME280;67013;49.730;17.292;2023-02-15T10:34:52;99820.34;;;6.14;60.89
77823;BME280;67013;49.730;17.292;2023-02-15T10:37:45;99815.48;;;6.10;60.30
77823;BME280;67013;49.730;17.292;2023-02-15T10:40:25;99814.02;;;6.01;60.64
77823;BME280;67013;49.730;17.292;2023-02-15T10:43:11;99809.17;;;5.96;60.29
77823;BME280;67013;49.730;17.292;2023-02-15T10:45:51;99810.52;;;5.92;60.29
77823;BME280;67013;49.730;17.292;2023-02-15T10:48:40;99804.55;;;5.89;60.10
77823;BME280;67013;49.730;17.292;2023-02-15T10:51:19;99804.78;;;5.69;60.36
77823;BME280;67013;49.730;17.292;2023-02-15T10:54:05;99801.37;;;5.63;60.72
77823;BME280;67013;49.730;17.292;2023-02-15T10:56:49;99798.04;;;5.58;60.84
77823;BME280;67013;49.730;17.292;2023-02-15T10:59:42;99797.05;;;5.57;60.80
77823;BME280;67013;49.730;17.292;2023-02-15T11:02:23;99793.24;;;5.46;60.83
77823;BME280;67013;49.730;17.292;2023-02-15T11:05:05;99791.60;;;5.37;60.93
77823;BME280;67013;49.730;17.292;2023-02-15T11:07:46;99789.35;;;5.37;61.44
77823;BME280;67013;49.730;17.292;2023-02-15T11:10:26;99785.98;;;5.40;61.83
77823;BME280;67013;49.730;17.292;2023-02-15T11:12:59;99789.61;;;5.46;61.48
77823;BME280;67013;49.730;17.292;2023-02-15T11:15:35;99786.20;;;5.45;61.46
77823;BME280;67013;49.730;17.292;2023-02-15T11:18:11;99784.80;;;5.46;61.59
77823;BME280;67013;49.730;17.292;2023-02-15T11:20:56;99777.78;;;5.50;61.74
77823;BME280;67013;49.730;17.292;2023-02-15T11:23:28;99772.18;;;5.41;61.41
77823;BME280;67013;49.730;17.292;2023-02-15T11:26:01;99772.84;;;5.18;61.97
77823;BME280;67013;49.730;17.292;2023-02-15T11:28:37;99768.70;;;5.12;62.31
77823;BME280;67013;49.730;17.292;2023-02-15T11:31:15;99765.63;;;5.11;62.61
77823;BME280;67013;49.730;17.292;2023-02-15T11:33:49;99763.18;;;5.13;62.87
77823;BME280;67013;49.730;17.292;2023-02-15T11:36:24;99763.04;;;5.23;62.83
77823;BME280;67013;49.730;17.292;2023-02-15T11:38:58;99765.63;;;5.29;62.48
77823;BME280;67013;49.730;17.292;2023-02-15T11:41:36;99764.33;;;5.33;62.47
77823;BME280;67013;49.730;17.292;2023-02-15T11:44:11;99764.63;;;5.40;62.32
77823;BME280;67013;49.730;17.292;2023-02-15T11:46:44;99761.00;;;5.45;62.34
77823;BME280;67013;49.730;17.292;2023-02-15T11:49:22;99757.33;;;5.47;62.22
77823;BME280;67013;49.730;17.292;2023-02-15T11:51:56;99751.52;;;5.50;62.39
77823;BME280;67013;49.730;17.292;2023-02-15T11:54:28;99747.02;;;5.57;62.28
77823;BME280;67013;49.730;17.292;2023-02-15T11:57:01;99742.52;;;5.63;62.28
77823;BME280;67013;49.730;17.292;2023-02-15T11:59:36;99741.14;;;5.57;61.81
77823;BME280;67013;49.730;17.292;2023-02-15T12:02:17;99736.23;;;5.37;61.81
77823;BME280;67013;49.730;17.292;2023-02-15T12:04:51;99735.66;;;5.27;62.53
77823;BME280;67013;49.730;17.292;2023-02-15T12:07:26;99732.52;;;5.29;62.60
77823;BME280;67013;49.730;17.292;2023-02-15T12:10:02;99732.42;;;5.32;62.30
77823;BME280;67013;49.730;17.292;2023-02-15T12:12:36;99727.91;;;5.27;62.80
77823;BME280;67013;49.730;17.292;2023-02-15T12:15:08;99729.06;;;5.23;63.19
77823;BME280;67013;49.730;17.292;2023-02-15T12:17:41;99724.84;;;5.26;62.82
77823;BME280;67013;49.730;17.292;2023-02-15T12:20:24;99725.60;;;5.35;62.85
77823;BME280;67013;49.730;17.292;2023-02-15T12:23:01;99723.53;;;5.41;62.56
77823;BME280;67013;49.730;17.292;2023-02-15T12:25:37;99725.19;;;5.43;62.52
77823;BME280;67013;49.730;17.292;2023-02-15T12:28:24;99728.56;;;5.46;62.21
77823;BME280;67013;49.730;17.292;2023-02-15T12:30:56;99721.94;;;5.48;62.38
77823;BME280;67013;49.730;17.292;2023-02-15T12:33:30;99719.12;;;5.38;62.30
77823;BME280;67013;49.730;17.292;2023-02-15T12:36:09;99714.52;;;5.19;62.44
77823;BME280;67013;49.730;17.292;2023-02-15T12:38:40;99714.42;;;5.11;63.08
77823;BME280;67013;49.730;17.292;2023-02-15T12:41:25;99713.89;;;5.11;63.25
77823;BME280;67013;49.730;17.292;2023-02-15T12:44:07;99711.98;;;5.12;63.31
77823;BME280;67013;49.730;17.292;2023-02-15T12:46:58;99710.83;;;5.10;63.36
77823;BME280;67013;49.730;17.292;2023-02-15T12:49:28;99707.85;;;5.06;63.52
77823;BME280;67013;49.730;17.292;2023-02-15T12:51:59;99705.21;;;5.02;63.81
77823;BME280;67013;49.730;17.292;2023-02-15T12:54:33;99704.86;;;5.03;63.85
77823;BME280;67013;49.730;17.292;2023-02-15T12:57:25;99700.20;;;5.08;63.79
77823;BME280;67013;49.730;17.292;2023-02-15T12:59:57;99694.30;;;5.10;63.51
77823;BME280;67013;49.730;17.292;2023-02-15T13:02:29;99687.33;;;5.12;63.64
77823;BME280;67013;49.730;17.292;2023-02-15T13:05:14;99684.43;;;5.17;63.64
77823;BME280;67013;49.730;17.292;2023-02-15T13:07:50;99682.00;;;5.22;63.64
77823;BME280;67013;49.730;17.292;2023-02-15T13:10:28;99679.16;;;5.25;63.68
77823;BME280;67013;49.730;17.292;2023-02-15T13:12:59;99672.36;;;5.28;63.73
77823;BME280;67013;49.730;17.292;2023-02-15T13:15:44;99670.88;;;5.31;63.80
77823;BME280;67013;49.730;17.292;2023-02-15T13:18:16;99668.26;;;5.37;63.70
77823;BME280;67013;49.730;17.292;2023-02-15T13:20:47;99661.57;;;5.42;63.67
77823;BME280;67013;49.730;17.292;2023-02-15T13:23:26;99656.07;;;5.47;63.61
77823;BME280;67013;49.730;17.292;2023-02-15T13:25:59;99661.70;;;5.54;63.40
77823;BME280;67013;49.730;17.292;2023-02-15T13:28:38;99659.20;;;5.56;63.61
77823;BME280;67013;49.730;17.292;2023-02-15T13:31:13;99658.30;;;5.46;63.09
77823;BME280;67013;49.730;17.292;2023-02-15T13:33:45;99656.55;;;5.26;63.53
77823;BME280;67013;49.730;17.292;2023-02-15T13:36:22;99655.29;;;5.05;64.06
77823;BME280;67013;49.730;17.292;2023-02-15T13:38:59;99654.56;;;4.94;64.42